createdAt,value
2019-03-19T00:01:04.936Z,99.90
2019-03-19T00:03:34.164Z,99.90
2019-03-19T00:06:03.401Z,99.90
2019-03-19T00:08:32.813Z,99.90
2019-03-19T00:11:02.048Z,99.90
2019-03-19T00:13:31.332Z,99.90
2019-03-19T00:16:00.655Z,99.90
2019-03-19T00:18:29.810Z,99.90
2019-03-19T00:20:59.042Z,99.90
2019-03-19T00:23:28.386Z,99.90
2019-03-19T00:25:57.686Z,99.90
2019-03-19T00:28:26.846Z,99.90
2019-03-19T00:30:56.065Z,99.90
2019-03-19T00:33:25.307Z,99.90
2019-03-19T00:35:54.629Z,99.90
2019-03-19T00:38:23.798Z,99.90
2019-03-19T00:40:52.945Z,99.90
2019-03-19T00:43:22.166Z,99.90
2019-03-19T00:45:51.463Z,99.90
2019-03-19T00:48:20.695Z,99.90
2019-03-19T00:50:49.943Z,99.90
2019-03-19T00:53:19.358Z,99.90
2019-03-19T00:55:48.645Z,99.90
2019-03-19T00:58:17.820Z,99.90
2019-03-19T01:00:47.084Z,99.90
2019-03-19T01:03:16.499Z,99.90
2019-03-19T01:05:45.666Z,99.90
2019-03-19T01:08:14.902Z,99.90
2019-03-19T01:10:44.159Z,99.90
2019-03-19T01:13:13.302Z,99.90
2019-03-19T01:15:42.478Z,99.90
2019-03-19T01:18:11.629Z,99.90
2019-03-19T01:20:40.842Z,99.90
2019-03-19T01:23:10.071Z,99.90
2019-03-19T01:25:39.650Z,99.90
2019-03-19T01:28:09.007Z,99.90
2019-03-19T01:30:38.195Z,99.90
2019-03-19T01:33:07.404Z,99.90
2019-03-19T01:35:36.624Z,99.90
2019-03-19T01:38:05.805Z,99.90
2019-03-19T01:40:34.961Z,99.90
2019-03-19T01:43:04.095Z,99.90
2019-03-19T01:45:33.284Z,99.90
2019-03-19T01:48:02.521Z,99.90
2019-03-19T01:50:31.663Z,99.90
2019-03-19T01:53:00.845Z,99.90
2019-03-19T01:55:29.983Z,99.90
2019-03-19T01:57:59.118Z,99.90
2019-03-19T02:00:28.361Z,99.90
2019-03-19T02:02:57.509Z,99.90
2019-03-19T02:05:26.651Z,99.90
2019-03-19T02:07:55.909Z,99.90
2019-03-19T02:10:25.128Z,99.90
2019-03-19T02:12:54.287Z,99.90
2019-03-19T02:15:23.443Z,99.90
2019-03-19T02:17:52.641Z,99.90
2019-03-19T02:20:21.787Z,99.90
2019-03-19T02:22:51.017Z,99.90
2019-03-19T02:25:20.165Z,99.90
2019-03-19T02:27:49.308Z,99.90
2019-03-19T02:30:18.523Z,99.90
2019-03-19T02:32:47.746Z,99.90
2019-03-19T02:35:16.946Z,99.90
2019-03-19T02:37:46.213Z,99.90
2019-03-19T02:40:15.435Z,99.90
2019-03-19T02:42:44.599Z,99.90
2019-03-19T02:45:14.248Z,99.90
2019-03-19T02:47:43.687Z,99.90
2019-03-19T02:50:13.686Z,99.90
2019-03-19T02:52:42.950Z,99.90
2019-03-19T02:55:12.456Z,99.90
2019-03-19T02:57:41.697Z,99.90
2019-03-19T03:00:11.169Z,99.90
2019-03-19T03:02:40.384Z,99.90
2019-03-19T03:05:11.536Z,99.90
2019-03-19T03:07:40.790Z,99.90
2019-03-19T03:10:10.265Z,99.90
2019-03-19T03:12:39.515Z,99.90
2019-03-19T03:15:27.802Z,99.90
2019-03-19T03:17:57.023Z,99.90
2019-03-19T03:20:26.242Z,99.90
2019-03-19T03:22:55.508Z,99.90
2019-03-19T03:25:24.826Z,99.90
2019-03-19T03:27:54.151Z,99.90
2019-03-19T03:30:23.850Z,99.90
2019-03-19T03:32:53.453Z,99.90
2019-03-19T03:35:23.013Z,99.90
2019-03-19T03:37:52.199Z,99.90
2019-03-19T03:40:21.431Z,99.90
2019-03-19T03:42:50.648Z,99.90
2019-03-19T03:45:20.374Z,99.90
2019-03-19T03:47:49.571Z,99.90
2019-03-19T03:50:18.934Z,99.90
2019-03-19T03:52:48.639Z,99.90
2019-03-19T03:55:17.893Z,99.90
2019-03-19T03:57:47.105Z,99.90
2019-03-19T04:00:16.310Z,99.90
2019-03-19T04:02:45.513Z,99.90
2019-03-19T04:05:14.731Z,99.90
2019-03-19T04:07:43.976Z,99.90
2019-03-19T04:10:13.223Z,99.90
2019-03-19T04:12:42.398Z,99.90
2019-03-19T04:15:13.959Z,99.90
2019-03-19T04:17:43.253Z,99.90
2019-03-19T04:20:13.446Z,99.90
2019-03-19T04:22:42.629Z,99.90
2019-03-19T04:25:12.259Z,99.90
2019-03-19T04:27:41.491Z,99.90
2019-03-19T04:30:10.994Z,99.90
2019-03-19T04:32:40.127Z,99.90
2019-03-19T04:35:09.535Z,99.90
2019-03-19T04:37:38.865Z,99.90
2019-03-19T04:40:09.651Z,99.90
2019-03-19T04:42:38.878Z,99.90
2019-03-19T04:45:09.117Z,99.90
2019-03-19T04:47:38.337Z,99.90
2019-03-19T04:50:08.531Z,99.90
2019-03-19T04:52:37.709Z,99.90
2019-03-19T04:55:06.992Z,99.90
2019-03-19T04:57:36.210Z,99.90
2019-03-19T05:00:06.608Z,99.90
2019-03-19T05:02:35.809Z,99.90
2019-03-19T05:05:05.977Z,99.90
2019-03-19T05:07:35.180Z,99.90
2019-03-19T05:10:05.270Z,99.90
2019-03-19T05:12:34.477Z,99.90
2019-03-19T05:15:04.229Z,99.90
2019-03-19T05:17:35.164Z,99.90
2019-03-19T05:20:05.268Z,99.90
2019-03-19T05:22:34.416Z,99.90
2019-03-19T05:25:03.733Z,99.90
2019-03-19T05:27:37.258Z,99.90
2019-03-19T05:30:04.182Z,99.90
2019-03-19T05:32:33.408Z,99.90
2019-03-19T05:35:02.660Z,99.90
2019-03-19T05:37:31.880Z,99.90
2019-03-19T05:40:01.118Z,99.90
2019-03-19T05:42:30.607Z,99.90
2019-03-19T05:44:59.766Z,99.90
2019-03-19T05:47:36.721Z,99.90
2019-03-19T05:49:59.993Z,99.90
2019-03-19T05:52:29.140Z,99.90
2019-03-19T05:54:58.358Z,99.90
2019-03-19T05:57:27.548Z,99.90
2019-03-19T05:59:56.763Z,99.90
2019-03-19T06:02:26.035Z,99.90
2019-03-19T06:04:55.209Z,99.90
2019-03-19T06:07:24.436Z,99.90
2019-03-19T06:09:53.734Z,99.90
2019-03-19T06:12:22.885Z,99.90
2019-03-19T06:14:52.033Z,99.90
2019-03-19T06:17:21.266Z,99.90
2019-03-19T06:19:52.347Z,99.90
2019-03-19T06:22:21.568Z,99.90
2019-03-19T06:24:50.781Z,99.90
2019-03-19T06:27:20.027Z,99.90
2019-03-19T06:29:49.180Z,99.90
2019-03-19T06:32:18.347Z,99.90
2019-03-19T06:34:47.539Z,99.90
2019-03-19T06:37:16.773Z,99.90
2019-03-19T06:39:46.005Z,99.90
2019-03-19T06:42:15.362Z,99.90
2019-03-19T06:44:44.656Z,99.90
2019-03-19T06:47:13.806Z,99.90
2019-03-19T06:49:42.967Z,99.90
2019-03-19T06:52:12.132Z,99.90
2019-03-19T06:54:41.360Z,99.90
2019-03-19T06:57:10.598Z,99.90
2019-03-19T06:59:39.768Z,99.90
2019-03-19T07:02:08.899Z,99.90
2019-03-19T07:04:38.174Z,99.90
2019-03-19T07:07:07.403Z,99.90
2019-03-19T07:09:36.617Z,99.90
2019-03-19T07:12:05.879Z,99.90
2019-03-19T07:14:35.089Z,99.90
2019-03-19T07:17:04.505Z,99.90
2019-03-19T07:19:33.713Z,99.90
2019-03-19T07:22:04.608Z,99.90
2019-03-19T07:24:33.789Z,99.90
2019-03-19T07:27:03.049Z,99.90
2019-03-19T07:29:32.266Z,99.90
2019-03-19T07:32:01.401Z,99.90
2019-03-19T07:34:30.655Z,99.90
2019-03-19T07:36:59.957Z,99.90
2019-03-19T07:39:29.182Z,99.90
2019-03-19T07:41:58.428Z,99.90
2019-03-19T07:44:27.580Z,99.90
2019-03-19T07:46:56.841Z,99.90
2019-03-19T07:49:26.023Z,99.90
2019-03-19T07:51:55.247Z,99.90
2019-03-19T07:54:24.462Z,99.90
2019-03-19T07:56:53.629Z,99.90
2019-03-19T07:59:22.837Z,99.90
2019-03-19T08:01:51.974Z,99.90
2019-03-19T08:04:21.174Z,99.90
2019-03-19T08:06:50.374Z,99.90
2019-03-19T08:09:19.579Z,99.90
2019-03-19T08:11:48.785Z,99.90
2019-03-19T08:14:18.010Z,99.90
2019-03-19T08:16:47.160Z,99.90
2019-03-19T08:19:16.353Z,99.90
2019-03-19T08:21:45.494Z,99.90
2019-03-19T08:24:14.651Z,99.90
2019-03-19T08:26:43.883Z,99.90
2019-03-19T08:29:13.069Z,99.90
2019-03-19T08:31:42.283Z,99.90
2019-03-19T08:34:11.474Z,99.90
2019-03-19T08:36:40.761Z,99.90
2019-03-19T08:39:10.013Z,99.90
2019-03-19T08:41:39.269Z,99.90
2019-03-19T08:44:08.533Z,99.90
2019-03-19T08:46:37.744Z,99.90
2019-03-19T08:49:06.991Z,99.90
2019-03-19T08:51:36.223Z,99.90
2019-03-19T08:54:05.693Z,99.90
2019-03-19T08:56:34.944Z,98.20
2019-03-19T08:59:06.162Z,97.30
2019-03-19T09:01:35.047Z,97.80
2019-03-19T09:04:04.446Z,97.00
2019-03-19T09:06:33.660Z,94.90
2019-03-19T09:09:03.202Z,91.50
2019-03-19T09:11:32.507Z,89.90
2019-03-19T09:14:01.652Z,90.00
2019-03-19T09:16:30.968Z,89.60
2019-03-19T09:19:00.139Z,88.90
2019-03-19T09:21:29.278Z,89.20
2019-03-19T09:23:59.999Z,86.00
2019-03-19T09:26:29.187Z,84.90
2019-03-19T09:28:58.357Z,85.50
2019-03-19T09:31:27.498Z,83.30
2019-03-19T09:33:56.663Z,84.50
2019-03-19T09:36:25.893Z,84.40
2019-03-19T09:38:55.058Z,82.80
2019-03-19T09:41:24.324Z,82.70
2019-03-19T09:43:53.726Z,79.50
2019-03-19T09:46:23.119Z,78.40
2019-03-19T09:48:52.385Z,79.40
2019-03-19T09:51:21.695Z,78.60
2019-03-19T09:53:50.835Z,76.50
2019-03-19T09:56:19.995Z,76.90
2019-03-19T09:58:49.294Z,77.00
2019-03-19T10:01:18.449Z,77.30
2019-03-19T10:03:48.053Z,77.80
2019-03-19T10:06:17.276Z,77.00
2019-03-19T10:08:46.431Z,77.10
2019-03-19T10:11:15.627Z,77.30
2019-03-19T10:13:44.839Z,78.40
2019-03-19T10:16:14.080Z,76.50
2019-03-19T10:18:43.281Z,78.50
2019-03-19T10:21:12.486Z,78.00
2019-03-19T10:23:41.649Z,78.40
2019-03-19T10:26:10.913Z,78.30
2019-03-19T10:28:40.065Z,76.90
2019-03-19T10:31:09.275Z,80.20
2019-03-19T10:33:38.521Z,78.70
2019-03-19T10:36:07.773Z,77.10
2019-03-19T10:38:37.064Z,76.60
2019-03-19T10:41:06.260Z,76.30
2019-03-19T10:43:35.568Z,77.20
2019-03-19T10:46:04.881Z,76.20
2019-03-19T10:48:34.159Z,77.00
2019-03-19T10:51:03.325Z,73.30
2019-03-19T10:53:32.476Z,72.50
2019-03-19T10:56:01.721Z,76.10
2019-03-19T10:58:30.976Z,76.40
2019-03-19T11:01:00.191Z,74.70
2019-03-19T11:03:29.433Z,72.80
2019-03-19T11:05:58.648Z,71.60
2019-03-19T11:08:27.859Z,70.40
2019-03-19T11:10:57.111Z,72.80
2019-03-19T11:13:26.353Z,73.40
2019-03-19T11:15:55.583Z,71.30
2019-03-19T11:18:24.783Z,71.50
2019-03-19T11:20:54.022Z,72.10
2019-03-19T11:23:23.336Z,70.30
2019-03-19T11:25:54.754Z,68.70
2019-03-19T11:28:23.397Z,68.80
2019-03-19T11:30:52.648Z,67.90
2019-03-19T11:33:21.910Z,68.70
2019-03-19T11:35:51.129Z,67.60
2019-03-19T11:38:20.361Z,64.30
2019-03-19T11:40:49.655Z,65.20
2019-03-19T11:43:18.825Z,63.40
2019-03-19T11:45:48.076Z,63.10
2019-03-19T11:48:17.325Z,62.20
2019-03-19T11:50:46.551Z,61.60
2019-03-19T11:53:15.780Z,62.90
2019-03-19T11:55:45.031Z,63.70
2019-03-19T11:58:14.198Z,62.30
2019-03-19T12:00:46.243Z,61.10
2019-03-19T12:03:16.593Z,61.60
2019-03-19T12:05:46.074Z,61.80
2019-03-19T12:08:15.527Z,61.60
2019-03-19T12:10:44.939Z,60.60
2019-03-19T12:13:14.175Z,59.00
2019-03-19T12:15:43.404Z,60.10
2019-03-19T12:18:12.661Z,59.30
2019-03-19T12:20:41.985Z,57.90
2019-03-19T12:23:11.155Z,58.00
2019-03-19T12:25:40.410Z,57.40
2019-03-19T12:28:09.636Z,58.10
2019-03-19T12:30:38.880Z,58.60
2019-03-19T12:33:08.155Z,60.60
2019-03-19T12:35:37.303Z,56.10
2019-03-19T12:38:06.463Z,53.80
2019-03-19T12:40:37.118Z,53.70
2019-03-19T12:43:06.939Z,52.60
2019-03-19T12:45:36.166Z,51.60
2019-03-19T12:48:05.782Z,54.00
2019-03-19T12:50:34.994Z,54.00
2019-03-19T12:53:04.454Z,50.50
2019-03-19T12:55:33.641Z,52.50
2019-03-19T12:58:02.924Z,53.90
2019-03-19T13:00:34.443Z,52.70
2019-03-19T13:03:03.120Z,52.90
2019-03-19T13:05:32.284Z,54.10
2019-03-19T13:08:01.506Z,52.10
2019-03-19T13:10:30.842Z,52.30
2019-03-19T13:12:59.980Z,52.00
2019-03-19T13:15:29.131Z,49.60
2019-03-19T13:17:58.315Z,51.80
2019-03-19T13:20:27.471Z,52.40
2019-03-19T13:22:56.621Z,51.80
2019-03-19T13:25:25.832Z,54.70
2019-03-19T13:27:55.075Z,54.10
2019-03-19T13:30:24.314Z,54.20
2019-03-19T13:32:53.583Z,53.80
2019-03-19T13:35:22.792Z,55.20
2019-03-19T13:37:52.003Z,54.60
2019-03-19T13:40:21.197Z,53.10
2019-03-19T13:42:50.476Z,52.30
2019-03-19T13:45:19.660Z,56.70
2019-03-19T13:47:48.876Z,54.80
2019-03-19T13:50:18.777Z,53.50
2019-03-19T13:52:48.000Z,54.30
2019-03-19T13:55:17.309Z,55.30
2019-03-19T13:57:46.659Z,54.00
2019-03-19T14:00:16.217Z,53.00
2019-03-19T14:02:45.498Z,54.20
2019-03-19T14:05:15.163Z,52.70
2019-03-19T14:07:44.397Z,51.50
2019-03-19T14:10:14.497Z,53.00
2019-03-19T14:12:43.692Z,53.30
2019-03-19T14:15:14.103Z,54.60
2019-03-19T14:17:43.334Z,55.90
2019-03-19T14:20:14.343Z,54.20
2019-03-19T14:22:45.121Z,54.80
2019-03-19T14:25:14.461Z,54.70
2019-03-19T14:27:43.652Z,55.70
2019-03-19T14:30:15.137Z,57.50
2019-03-19T14:32:44.373Z,55.10
2019-03-19T14:35:13.804Z,56.70
2019-03-19T14:37:43.019Z,55.40
2019-03-19T14:40:14.307Z,55.40
2019-03-19T14:42:43.533Z,56.30
2019-03-19T14:45:14.395Z,54.70
2019-03-19T14:47:43.610Z,55.40
2019-03-19T14:50:13.610Z,55.50
2019-03-19T14:52:43.919Z,55.90
2019-03-19T14:55:13.537Z,56.20
2019-03-19T14:57:43.078Z,57.60
2019-03-19T15:00:13.931Z,55.90
2019-03-19T15:02:43.241Z,56.40
2019-03-19T15:05:13.303Z,57.20
2019-03-19T15:07:42.443Z,56.30
2019-03-19T15:10:13.584Z,56.40
2019-03-19T15:12:42.803Z,55.20
2019-03-19T15:15:13.539Z,56.30
2019-03-19T15:17:42.753Z,56.80
2019-03-19T15:20:14.366Z,57.30
2019-03-19T15:22:43.650Z,55.50
2019-03-19T15:25:12.918Z,56.60
2019-03-19T15:27:42.146Z,57.30
2019-03-19T15:30:11.682Z,55.80
2019-03-19T15:32:41.024Z,56.70
2019-03-19T15:35:12.172Z,54.10
2019-03-19T15:37:41.693Z,54.30
2019-03-19T15:40:12.443Z,54.90
2019-03-19T15:42:41.692Z,53.80
2019-03-19T15:45:11.815Z,54.00
2019-03-19T15:47:41.105Z,54.90
2019-03-19T15:50:12.313Z,55.60
2019-03-19T15:52:41.565Z,55.90
2019-03-19T15:55:10.876Z,56.90
2019-03-19T15:57:40.040Z,56.90
2019-03-19T16:00:12.203Z,55.10
2019-03-19T16:02:41.456Z,58.70
2019-03-19T16:05:11.528Z,56.80
2019-03-19T16:07:41.145Z,57.30
2019-03-19T16:10:10.657Z,59.80
2019-03-19T16:12:39.854Z,56.30
2019-03-19T16:15:10.783Z,57.20
2019-03-19T16:17:40.170Z,57.10
2019-03-19T16:20:11.838Z,57.60
2019-03-19T16:22:41.330Z,58.00
2019-03-19T16:25:10.830Z,57.80
2019-03-19T16:27:39.993Z,59.20
2019-03-19T16:30:10.571Z,59.20
2019-03-19T16:32:39.990Z,60.10
2019-03-19T16:35:09.800Z,58.60
2019-03-19T16:37:40.886Z,58.50
2019-03-19T16:40:12.951Z,60.70
2019-03-19T16:42:42.200Z,59.90
2019-03-19T16:45:11.470Z,60.30
2019-03-19T16:47:40.672Z,62.10
2019-03-19T16:50:11.374Z,61.90
2019-03-19T16:52:40.538Z,62.90
2019-03-19T16:55:10.502Z,60.10
2019-03-19T16:57:39.931Z,61.50
2019-03-19T17:00:12.360Z,62.50
2019-03-19T17:02:41.542Z,63.50
2019-03-19T17:05:10.911Z,62.40
2019-03-19T17:07:40.489Z,62.20
2019-03-19T17:10:11.434Z,61.40
2019-03-19T17:12:42.024Z,65.30
2019-03-19T17:15:12.022Z,65.40
2019-03-19T17:17:41.264Z,63.90
2019-03-19T17:20:11.485Z,66.90
2019-03-19T17:22:40.887Z,67.30
2019-03-19T17:25:11.543Z,65.90
2019-03-19T17:27:40.844Z,69.20
2019-03-19T17:30:17.263Z,69.60
2019-03-19T17:32:46.674Z,66.60
2019-03-19T17:35:15.939Z,66.50
2019-03-19T17:37:45.151Z,66.30
2019-03-19T17:40:14.453Z,68.30
2019-03-19T17:42:43.997Z,67.80
2019-03-19T17:45:13.437Z,67.80
2019-03-19T17:47:42.748Z,67.80
2019-03-19T17:50:14.467Z,68.60
2019-03-19T17:52:43.825Z,67.50
2019-03-19T17:55:13.157Z,70.70
2019-03-19T17:57:42.406Z,72.30
2019-03-19T18:00:14.578Z,73.20
2019-03-19T18:02:43.833Z,71.40
2019-03-19T18:05:13.279Z,71.80
2019-03-19T18:07:42.561Z,74.10
2019-03-19T18:10:12.443Z,73.40
2019-03-19T18:12:42.095Z,73.70
2019-03-19T18:15:11.328Z,72.30
2019-03-19T18:17:40.568Z,75.50
2019-03-19T18:20:09.965Z,78.80
2019-03-19T18:22:39.168Z,79.30
2019-03-19T18:25:09.172Z,79.30
2019-03-19T18:27:38.404Z,79.40
2019-03-19T18:30:09.414Z,85.20
2019-03-19T18:32:38.645Z,87.80
2019-03-19T18:35:08.126Z,88.40
2019-03-19T18:37:37.436Z,88.00
2019-03-19T18:40:06.953Z,89.60
2019-03-19T18:42:37.887Z,90.40
2019-03-19T18:45:07.336Z,94.00
2019-03-19T18:47:36.506Z,94.10
2019-03-19T18:50:07.016Z,92.90
2019-03-19T18:52:36.356Z,90.50
2019-03-19T18:55:06.429Z,92.90
2019-03-19T18:57:35.674Z,93.10
2019-03-19T19:00:06.060Z,93.20
2019-03-19T19:02:35.392Z,99.10
2019-03-19T19:05:05.549Z,98.80
2019-03-19T19:07:34.806Z,98.70
2019-03-19T19:10:05.004Z,99.90
2019-03-19T19:12:34.255Z,99.70
2019-03-19T19:15:04.144Z,98.50
2019-03-19T19:17:33.301Z,98.70
2019-03-19T19:20:02.532Z,99.70
2019-03-19T19:22:31.839Z,99.90
2019-03-19T19:25:01.011Z,99.90
2019-03-19T19:27:30.239Z,98.40
2019-03-19T19:29:59.518Z,99.50
2019-03-19T19:32:28.852Z,99.90
2019-03-19T19:34:58.091Z,99.90
2019-03-19T19:37:27.373Z,99.90
2019-03-19T19:39:56.627Z,99.90
2019-03-19T19:42:25.811Z,99.90
2019-03-19T19:44:55.088Z,99.90
2019-03-19T19:47:24.268Z,99.90
2019-03-19T19:49:53.486Z,99.90
2019-03-19T19:52:22.744Z,99.90
2019-03-19T19:54:51.902Z,99.90
2019-03-19T19:57:21.105Z,99.90
2019-03-19T19:59:50.381Z,99.90
2019-03-19T20:02:19.528Z,99.90
2019-03-19T20:04:48.762Z,99.90
2019-03-19T20:07:18.028Z,99.90
2019-03-19T20:09:47.188Z,99.90
2019-03-19T20:12:16.463Z,99.90
2019-03-19T20:14:45.803Z,99.90
2019-03-19T20:17:15.021Z,99.90
2019-03-19T20:19:44.319Z,99.90
2019-03-19T20:22:13.655Z,99.90
2019-03-19T20:24:43.175Z,99.90
2019-03-19T20:27:12.682Z,99.90
2019-03-19T20:29:41.957Z,99.90
2019-03-19T20:32:11.202Z,99.90
2019-03-19T20:34:40.434Z,99.90
2019-03-19T20:37:09.612Z,99.90
2019-03-19T20:39:38.917Z,99.90
2019-03-19T20:42:07.670Z,99.90
2019-03-19T20:44:36.864Z,99.90
2019-03-19T20:47:06.135Z,99.90
2019-03-19T20:49:35.453Z,99.90
2019-03-19T20:52:04.824Z,99.90
2019-03-19T20:54:34.100Z,99.90
2019-03-19T20:57:03.336Z,99.90
2019-03-19T20:59:32.589Z,99.90
2019-03-19T21:02:01.819Z,99.90
2019-03-19T21:04:32.007Z,99.90
2019-03-19T21:07:02.526Z,99.90
2019-03-19T21:09:31.749Z,99.90
2019-03-19T21:12:00.995Z,99.90
2019-03-19T21:14:30.266Z,99.90
2019-03-19T21:16:59.511Z,99.90
2019-03-19T21:19:28.831Z,99.90
2019-03-19T21:22:00.453Z,99.90
2019-03-19T21:24:28.950Z,99.90
2019-03-19T21:26:58.192Z,99.90
2019-03-19T21:29:27.558Z,99.90
2019-03-19T21:31:56.782Z,99.90
2019-03-19T21:34:26.020Z,99.90
2019-03-19T21:36:55.359Z,99.90
2019-03-19T21:39:24.611Z,99.90
2019-03-19T21:41:53.801Z,99.90
2019-03-19T21:44:23.130Z,99.90
2019-03-19T21:46:52.376Z,99.90
2019-03-19T21:49:21.709Z,99.90
2019-03-19T21:51:50.957Z,99.90
2019-03-19T21:54:20.250Z,99.90
2019-03-19T21:56:49.555Z,99.90
2019-03-19T21:59:18.731Z,99.90
2019-03-19T22:01:47.973Z,99.90
2019-03-19T22:04:17.204Z,99.90
2019-03-19T22:06:46.389Z,99.90
2019-03-19T22:09:15.647Z,99.90
2019-03-19T22:11:44.948Z,99.90
2019-03-19T22:14:14.131Z,99.90
2019-03-19T22:16:43.280Z,99.90
2019-03-19T22:19:12.435Z,99.90
2019-03-19T22:21:41.626Z,99.90
2019-03-19T22:24:10.772Z,99.90
2019-03-19T22:26:40.016Z,99.90
2019-03-19T22:29:09.273Z,99.90
2019-03-19T22:31:38.508Z,99.90
2019-03-19T22:34:13.974Z,99.90
2019-03-19T22:36:38.588Z,99.90
2019-03-19T22:39:09.111Z,99.90
2019-03-19T22:41:38.297Z,99.90
2019-03-19T22:44:07.518Z,99.90
2019-03-19T22:46:36.792Z,99.90
2019-03-19T22:49:06.179Z,99.90
2019-03-19T22:51:35.470Z,99.90
2019-03-19T22:54:04.643Z,99.90
2019-03-19T22:56:34.306Z,99.90
2019-03-19T22:59:03.510Z,99.90
2019-03-19T23:01:32.737Z,99.90
2019-03-19T23:04:01.899Z,99.90
2019-03-19T23:06:31.236Z,99.90
2019-03-19T23:09:00.398Z,99.90
2019-03-19T23:11:29.543Z,99.90
2019-03-19T23:13:58.724Z,99.90
2019-03-19T23:16:28.110Z,99.90
2019-03-19T23:18:57.361Z,99.90
2019-03-19T23:21:26.620Z,99.90
2019-03-19T23:23:55.774Z,99.90
2019-03-19T23:26:25.000Z,99.90
2019-03-19T23:28:54.263Z,99.90
2019-03-19T23:31:23.416Z,99.90
2019-03-19T23:33:52.641Z,99.90
2019-03-19T23:36:21.888Z,99.90
2019-03-19T23:38:51.114Z,99.90
2019-03-19T23:41:20.526Z,99.90
2019-03-19T23:43:49.882Z,99.90
2019-03-19T23:46:19.147Z,99.90
2019-03-19T23:48:48.378Z,99.90
2019-03-19T23:51:17.636Z,99.90
2019-03-19T23:53:46.763Z,99.90
2019-03-19T23:56:15.916Z,99.90
2019-03-19T23:58:45.095Z,99.90
